createdAt,value
2022-10-31T00:01:26.270Z,90.70
2022-10-31T00:03:54.288Z,90.80
2022-10-31T00:06:22.362Z,90.70
2022-10-31T00:08:55.161Z,90.70
2022-10-31T00:11:22.971Z,90.70
2022-10-31T00:13:50.112Z,90.70
2022-10-31T00:16:19.385Z,90.70
2022-10-31T00:19:00.197Z,90.70
2022-10-31T00:21:28.127Z,90.80
2022-10-31T00:23:55.272Z,90.70
2022-10-31T00:26:22.393Z,90.80
2022-10-31T00:28:50.224Z,90.80
2022-10-31T00:31:17.651Z,90.80
2022-10-31T00:33:44.836Z,90.80
2022-10-31T00:36:15.261Z,90.80
2022-10-31T00:38:43.883Z,90.80
2022-10-31T00:41:12.297Z,90.80
2022-10-31T00:43:39.541Z,90.80
2022-10-31T00:46:06.652Z,90.80
2022-10-31T00:48:33.958Z,90.80
2022-10-31T00:51:01.032Z,90.80
2022-10-31T00:53:28.231Z,90.70
2022-10-31T00:55:55.342Z,90.80
2022-10-31T00:58:22.733Z,90.80
2022-10-31T01:00:56.195Z,90.80
2022-10-31T01:03:25.327Z,91.10
2022-10-31T01:06:04.190Z,90.80
2022-10-31T01:08:31.559Z,90.80
2022-10-31T01:11:03.816Z,90.80
2022-10-31T01:13:30.969Z,90.80
2022-10-31T01:15:59.361Z,90.90
2022-10-31T01:18:26.998Z,90.90
2022-10-31T01:21:09.366Z,90.90
2022-10-31T01:23:37.281Z,90.90
2022-10-31T01:26:12.832Z,90.90
2022-10-31T01:28:48.289Z,90.80
2022-10-31T01:31:16.176Z,90.90
2022-10-31T01:33:43.372Z,90.90
2022-10-31T01:36:31.725Z,90.90
2022-10-31T01:39:01.245Z,90.90
2022-10-31T01:41:31.076Z,90.80
2022-10-31T01:44:01.497Z,90.90
2022-10-31T01:46:38.047Z,90.90
2022-10-31T01:49:10.103Z,90.90
2022-10-31T01:51:43.369Z,90.90
2022-10-31T01:54:13.725Z,90.90
2022-10-31T01:56:43.838Z,90.90
2022-10-31T01:59:14.411Z,90.90
2022-10-31T02:01:42.135Z,90.90
2022-10-31T02:04:09.682Z,90.90
2022-10-31T02:07:14.188Z,90.90
2022-10-31T02:09:43.197Z,90.90
2022-10-31T02:12:11.945Z,90.90
2022-10-31T02:14:42.571Z,91.20
2022-10-31T02:17:09.943Z,90.90
2022-10-31T02:19:49.009Z,90.90
2022-10-31T02:22:31.389Z,91.00
2022-10-31T02:24:58.555Z,91.00
2022-10-31T02:27:47.422Z,91.00
2022-10-31T02:30:22.221Z,90.90
2022-10-31T02:32:55.802Z,90.90
2022-10-31T02:35:50.589Z,91.00
2022-10-31T02:38:34.287Z,90.90
2022-10-31T02:41:22.514Z,91.00
2022-10-31T02:44:04.357Z,90.90
2022-10-31T02:47:08.929Z,90.90
2022-10-31T02:49:46.439Z,90.90
2022-10-31T02:52:23.071Z,90.90
2022-10-31T02:54:50.389Z,90.90
2022-10-31T02:57:31.985Z,90.90
2022-10-31T03:00:08.167Z,90.90
2022-10-31T03:02:59.974Z,90.90
2022-10-31T03:05:37.284Z,91.10
2022-10-31T03:08:23.040Z,90.80
2022-10-31T03:11:01.075Z,90.80
2022-10-31T03:13:40.213Z,90.80
2022-10-31T03:16:27.516Z,90.70
2022-10-31T03:19:11.686Z,90.70
2022-10-31T03:21:47.136Z,90.70
2022-10-31T03:24:16.152Z,90.60
2022-10-31T03:26:48.767Z,90.60
2022-10-31T03:29:20.267Z,90.60
2022-10-31T03:31:59.465Z,90.60
2022-10-31T03:34:27.083Z,90.60
2022-10-31T03:36:58.353Z,90.60
2022-10-31T03:39:26.771Z,90.50
2022-10-31T03:42:06.904Z,90.50
2022-10-31T03:44:36.000Z,90.40
2022-10-31T03:47:04.975Z,90.40
2022-10-31T03:49:33.646Z,90.50
2022-10-31T03:52:18.445Z,90.40
2022-10-31T03:54:48.337Z,90.30
2022-10-31T03:57:24.045Z,90.40
2022-10-31T04:00:09.230Z,90.40
2022-10-31T04:02:40.959Z,90.40
2022-10-31T04:05:09.854Z,90.40
2022-10-31T04:07:42.593Z,90.30
2022-10-31T04:10:12.659Z,90.30
2022-10-31T04:12:40.877Z,90.30
2022-10-31T04:15:10.816Z,90.30
2022-10-31T04:17:41.900Z,90.20
2022-10-31T04:20:09.372Z,90.20
2022-10-31T04:22:39.515Z,90.30
2022-10-31T04:25:07.338Z,90.20
2022-10-31T04:27:34.413Z,90.20
2022-10-31T04:30:01.617Z,90.30
2022-10-31T04:32:29.013Z,90.10
2022-10-31T04:34:56.098Z,90.20
2022-10-31T04:37:23.204Z,90.20
2022-10-31T04:39:50.409Z,90.10
2022-10-31T04:42:17.497Z,90.10
2022-10-31T04:44:44.627Z,90.10
2022-10-31T04:47:11.669Z,90.20
2022-10-31T04:49:38.781Z,90.10
2022-10-31T04:52:05.899Z,90.10
2022-10-31T04:54:32.958Z,90.20
2022-10-31T04:57:00.130Z,90.10
2022-10-31T04:59:27.179Z,90.10
2022-10-31T05:01:54.333Z,90.10
2022-10-31T05:04:21.449Z,90.10
2022-10-31T05:06:48.630Z,90.20
2022-10-31T05:09:15.742Z,90.10
2022-10-31T05:11:42.816Z,90.10
2022-10-31T05:14:12.982Z,90.10
2022-10-31T05:16:40.121Z,90.10
2022-10-31T05:19:07.592Z,90.10
2022-10-31T05:21:34.746Z,90.10
2022-10-31T05:24:01.931Z,90.10
2022-10-31T05:26:29.070Z,90.10
2022-10-31T05:28:56.248Z,90.20
2022-10-31T05:31:23.361Z,90.10
2022-10-31T05:33:50.526Z,90.10
2022-10-31T05:36:17.626Z,90.10
2022-10-31T05:38:44.861Z,90.10
2022-10-31T05:41:11.979Z,90.10
2022-10-31T05:43:39.094Z,90.00
2022-10-31T05:46:06.140Z,90.10
2022-10-31T05:48:33.267Z,90.00
2022-10-31T05:51:00.372Z,90.10
2022-10-31T05:53:27.480Z,90.10
2022-10-31T05:55:54.581Z,90.10
2022-10-31T05:58:21.765Z,90.10
2022-10-31T06:00:48.875Z,90.10
2022-10-31T06:03:15.990Z,90.10
2022-10-31T06:05:43.077Z,90.10
2022-10-31T06:08:10.176Z,90.10
2022-10-31T06:10:37.350Z,90.10
2022-10-31T06:13:04.382Z,90.10
2022-10-31T06:15:31.504Z,90.10
2022-10-31T06:18:00.825Z,90.10
2022-10-31T06:20:28.593Z,90.10
2022-10-31T06:22:55.661Z,90.10
2022-10-31T06:25:22.719Z,90.20
2022-10-31T06:27:49.940Z,90.10
2022-10-31T06:30:17.117Z,90.50
2022-10-31T06:32:44.412Z,90.20
2022-10-31T06:35:11.752Z,90.20
2022-10-31T06:37:40.003Z,90.20
2022-10-31T06:40:07.557Z,90.20
2022-10-31T06:42:34.695Z,90.20
2022-10-31T06:45:01.804Z,90.20
2022-10-31T06:47:28.924Z,90.30
2022-10-31T06:49:56.020Z,90.30
2022-10-31T06:52:24.511Z,90.30
2022-10-31T06:54:51.717Z,90.30
2022-10-31T06:57:18.855Z,90.30
2022-10-31T06:59:46.275Z,90.40
2022-10-31T07:02:13.841Z,90.40
2022-10-31T07:04:41.068Z,90.40
2022-10-31T07:07:08.215Z,90.30
2022-10-31T07:09:35.324Z,90.40
2022-10-31T07:12:02.425Z,90.40
2022-10-31T07:14:29.670Z,90.40
2022-10-31T07:16:56.774Z,90.40
2022-10-31T07:19:24.006Z,90.40
2022-10-31T07:21:51.192Z,90.40
2022-10-31T07:24:18.850Z,90.50
2022-10-31T07:26:48.721Z,90.40
2022-10-31T07:29:16.159Z,90.50
2022-10-31T07:31:45.340Z,90.50
2022-10-31T07:34:12.673Z,90.50
2022-10-31T07:36:39.868Z,90.60
2022-10-31T07:39:07.005Z,90.50
2022-10-31T07:41:34.275Z,90.60
2022-10-31T07:44:01.437Z,90.60
2022-10-31T07:46:28.582Z,90.60
2022-10-31T07:48:55.726Z,90.60
2022-10-31T07:51:22.857Z,90.70
2022-10-31T07:53:50.024Z,90.70
2022-10-31T07:56:17.550Z,90.70
2022-10-31T07:58:46.422Z,90.70
2022-10-31T08:01:13.776Z,90.70
2022-10-31T08:03:40.984Z,90.80
2022-10-31T08:06:08.471Z,90.80
2022-10-31T08:08:38.279Z,90.80
2022-10-31T08:11:05.874Z,90.80
2022-10-31T08:13:33.077Z,90.70
2022-10-31T08:16:04.774Z,90.80
2022-10-31T08:18:34.928Z,90.90
2022-10-31T08:21:02.004Z,90.90
2022-10-31T08:23:29.081Z,90.90
2022-10-31T08:25:56.250Z,91.00
2022-10-31T08:28:23.322Z,90.90
2022-10-31T08:30:50.428Z,91.10
2022-10-31T08:33:19.619Z,91.50
2022-10-31T08:35:46.774Z,91.20
2022-10-31T08:38:15.178Z,91.20
2022-10-31T08:40:42.624Z,92.60
2022-10-31T08:43:13.835Z,91.60
2022-10-31T08:45:41.458Z,91.60
2022-10-31T08:48:12.153Z,91.70
2022-10-31T08:50:39.787Z,91.80
2022-10-31T08:53:27.526Z,91.90
2022-10-31T08:55:57.492Z,91.90
2022-10-31T08:58:25.609Z,92.10
2022-10-31T09:00:54.493Z,92.10
2022-10-31T09:03:26.527Z,92.30
2022-10-31T09:05:58.045Z,92.00
2022-10-31T09:08:25.376Z,92.20
2022-10-31T09:10:53.201Z,91.90
2022-10-31T09:13:21.901Z,92.00
2022-10-31T09:15:50.694Z,92.60
2022-10-31T09:18:23.030Z,92.20
2022-10-31T09:20:51.317Z,92.50
2022-10-31T09:23:22.806Z,92.30
2022-10-31T09:25:52.327Z,92.20
2022-10-31T09:28:22.231Z,92.10
2022-10-31T09:30:51.660Z,92.30
2022-10-31T09:33:19.914Z,92.00
2022-10-31T09:35:47.548Z,92.00
2022-10-31T09:38:23.431Z,92.00
2022-10-31T09:40:58.169Z,92.00
2022-10-31T09:43:43.800Z,92.10
2022-10-31T09:46:34.502Z,92.00
2022-10-31T09:49:30.099Z,92.00
2022-10-31T09:54:55.188Z,92.10
2022-10-31T09:57:37.425Z,92.10
2022-10-31T10:00:09.072Z,92.10
2022-10-31T10:02:45.662Z,92.30
2022-10-31T10:05:24.819Z,92.30
2022-10-31T10:07:56.269Z,92.40
2022-10-31T10:11:05.032Z,92.40
2022-10-31T10:13:35.300Z,92.80
2022-10-31T10:16:34.460Z,92.90
2022-10-31T10:19:23.233Z,92.80
2022-10-31T10:22:05.471Z,93.80
2022-10-31T10:24:54.673Z,93.70
2022-10-31T10:27:59.652Z,93.80
2022-10-31T10:31:02.002Z,93.40
2022-10-31T10:33:34.151Z,93.50
2022-10-31T10:36:06.488Z,93.40
2022-10-31T10:39:11.832Z,93.30
2022-10-31T10:41:42.882Z,93.20
2022-10-31T10:44:12.756Z,93.40
2022-10-31T10:47:15.110Z,93.30
2022-10-31T10:50:05.750Z,93.60
2022-10-31T10:52:51.072Z,93.30
2022-10-31T10:55:40.461Z,93.40
2022-10-31T10:58:09.654Z,93.50
2022-10-31T11:00:41.310Z,93.40
2022-10-31T11:03:09.407Z,93.40
2022-10-31T11:06:02.593Z,93.30
2022-10-31T11:08:34.281Z,93.20
2022-10-31T11:11:31.819Z,93.30
2022-10-31T11:14:04.848Z,93.40
2022-10-31T11:16:43.416Z,93.30
2022-10-31T11:19:14.514Z,93.20
2022-10-31T11:21:42.177Z,93.20
2022-10-31T11:24:12.215Z,93.20
2022-10-31T11:26:41.288Z,93.20
2022-10-31T11:29:27.178Z,93.10
2022-10-31T11:32:01.065Z,93.30
2022-10-31T11:34:34.171Z,93.20
2022-10-31T11:37:19.938Z,93.10
2022-10-31T11:39:54.872Z,93.20
2022-10-31T11:42:31.396Z,93.40
2022-10-31T11:45:13.967Z,93.20
2022-10-31T11:47:44.854Z,93.20
2022-10-31T11:50:19.773Z,93.30
2022-10-31T11:52:47.092Z,93.20
2022-10-31T11:55:14.206Z,93.20
2022-10-31T11:57:50.570Z,93.20
2022-10-31T12:00:31.375Z,93.00
2022-10-31T12:03:24.544Z,93.10
2022-10-31T12:06:03.577Z,93.00
2022-10-31T12:08:37.431Z,93.00
2022-10-31T12:11:07.598Z,93.00
2022-10-31T12:13:46.775Z,93.00
2022-10-31T12:16:34.345Z,93.10
2022-10-31T12:19:11.287Z,93.00
2022-10-31T12:22:05.554Z,93.10
2022-10-31T12:24:35.559Z,93.10
2022-10-31T12:27:19.400Z,93.00
2022-10-31T12:30:05.436Z,93.10
2022-10-31T12:32:42.167Z,93.10
2022-10-31T12:35:31.140Z,93.00
2022-10-31T12:38:04.446Z,92.90
2022-10-31T12:40:53.168Z,92.90
2022-10-31T12:43:23.741Z,93.00
2022-10-31T12:45:55.939Z,92.90
2022-10-31T12:48:26.075Z,92.90
2022-10-31T12:51:21.793Z,92.90
2022-10-31T12:54:01.071Z,92.90
2022-10-31T12:56:53.573Z,92.90
2022-10-31T12:59:27.953Z,92.80
2022-10-31T13:02:24.589Z,92.80
2022-10-31T13:05:13.527Z,92.80
2022-10-31T13:07:59.067Z,92.90
2022-10-31T13:10:36.895Z,92.80
2022-10-31T13:13:32.986Z,92.80
2022-10-31T13:16:12.195Z,92.90
2022-10-31T13:19:02.793Z,92.80
2022-10-31T13:21:58.941Z,92.70
2022-10-31T13:24:55.620Z,92.80
2022-10-31T13:27:47.589Z,92.70
2022-10-31T13:30:17.838Z,92.80
2022-10-31T13:33:10.120Z,92.70
2022-10-31T13:36:08.003Z,92.70
2022-10-31T13:38:56.153Z,92.80
2022-10-31T13:41:51.127Z,92.70
2022-10-31T13:44:30.535Z,92.70
2022-10-31T13:46:59.618Z,92.60
2022-10-31T13:49:39.373Z,92.60
2022-10-31T13:52:22.962Z,92.60
2022-10-31T13:54:57.036Z,92.60
2022-10-31T13:57:36.251Z,92.60
2022-10-31T14:00:03.996Z,92.60
2022-10-31T14:02:34.176Z,92.60
2022-10-31T14:05:07.756Z,92.50
2022-10-31T14:07:45.387Z,92.50
2022-10-31T14:10:28.348Z,92.40
2022-10-31T14:13:04.854Z,92.40
2022-10-31T14:15:32.822Z,92.40
2022-10-31T14:18:08.146Z,92.40
2022-10-31T14:20:43.991Z,92.50
2022-10-31T14:23:36.280Z,92.40
2022-10-31T14:26:33.452Z,92.50
2022-10-31T14:29:25.964Z,92.50
2022-10-31T14:32:24.241Z,92.40
2022-10-31T14:34:51.462Z,92.50
2022-10-31T14:37:24.269Z,92.50
2022-10-31T14:40:17.797Z,92.50
2022-10-31T14:43:24.346Z,92.50
2022-10-31T14:46:11.111Z,92.50
2022-10-31T14:48:58.508Z,92.50
2022-10-31T14:51:43.173Z,92.50
2022-10-31T14:54:16.449Z,92.40
2022-10-31T14:56:52.637Z,92.50
2022-10-31T14:59:27.138Z,92.50
2022-10-31T15:02:21.881Z,92.50
2022-10-31T15:04:49.756Z,92.50
2022-10-31T15:07:25.337Z,92.50
2022-10-31T15:10:04.953Z,92.40
2022-10-31T15:12:34.721Z,92.40
2022-10-31T15:15:18.377Z,92.40
2022-10-31T15:17:50.352Z,92.40
2022-10-31T15:20:46.290Z,92.40
2022-10-31T15:23:21.563Z,92.40
2022-10-31T15:25:48.807Z,92.40
2022-10-31T15:28:23.571Z,92.40
2022-10-31T15:31:04.279Z,92.40
2022-10-31T15:33:43.798Z,92.30
2022-10-31T15:36:27.637Z,92.40
2022-10-31T15:38:59.567Z,92.30
2022-10-31T15:41:30.933Z,92.30
2022-10-31T15:44:13.038Z,92.30
2022-10-31T15:46:43.454Z,92.30
2022-10-31T15:49:33.801Z,92.60
2022-10-31T15:52:15.229Z,92.30
2022-10-31T15:54:56.947Z,92.30
2022-10-31T15:57:25.144Z,92.30
2022-10-31T15:59:53.520Z,92.30
2022-10-31T16:02:28.149Z,92.30
2022-10-31T16:05:16.608Z,92.30
2022-10-31T16:07:51.229Z,92.20
2022-10-31T16:10:27.111Z,92.30
2022-10-31T16:12:55.046Z,92.20
2022-10-31T16:15:22.720Z,92.20
2022-10-31T16:17:52.334Z,92.10
2022-10-31T16:20:33.076Z,92.20
2022-10-31T16:23:02.108Z,92.10
2022-10-31T16:25:38.874Z,92.20
2022-10-31T16:28:16.107Z,92.20
2022-10-31T16:30:50.267Z,92.10
2022-10-31T16:33:29.183Z,92.10
2022-10-31T16:36:09.616Z,92.10
2022-10-31T16:38:43.189Z,92.10
2022-10-31T16:41:10.394Z,92.10
2022-10-31T16:43:37.579Z,92.10
2022-10-31T16:46:05.540Z,92.10
2022-10-31T16:48:32.827Z,92.10
2022-10-31T16:51:00.039Z,92.10
2022-10-31T16:53:27.133Z,92.10
2022-10-31T16:55:54.278Z,92.10
2022-10-31T16:58:30.896Z,92.10
2022-10-31T17:00:59.307Z,92.10
2022-10-31T17:03:26.582Z,92.10
2022-10-31T17:05:56.179Z,92.10
2022-10-31T17:08:24.929Z,92.10
2022-10-31T17:10:54.604Z,92.10
2022-10-31T17:13:24.716Z,92.10
2022-10-31T17:15:57.620Z,92.10
2022-10-31T17:18:27.535Z,92.10
2022-10-31T17:21:00.255Z,92.10
2022-10-31T17:23:28.396Z,92.10
2022-10-31T17:25:56.233Z,92.10
2022-10-31T17:28:23.355Z,92.10
2022-10-31T17:30:50.712Z,92.10
2022-10-31T17:33:18.226Z,92.10
2022-10-31T17:35:45.614Z,92.10
2022-10-31T17:38:13.330Z,92.10
2022-10-31T17:40:43.827Z,92.10
2022-10-31T17:43:12.289Z,92.10
2022-10-31T17:45:41.144Z,92.10
2022-10-31T17:48:14.242Z,92.10
2022-10-31T17:50:41.426Z,92.10
2022-10-31T17:53:08.580Z,92.10
2022-10-31T17:55:37.470Z,92.10
2022-10-31T17:58:07.845Z,92.10
2022-10-31T18:00:34.999Z,92.10
2022-10-31T18:03:06.617Z,92.10
2022-10-31T18:05:34.375Z,92.10
2022-10-31T18:08:04.031Z,92.10
2022-10-31T18:10:34.446Z,92.10
2022-10-31T18:13:01.837Z,92.10
2022-10-31T18:15:29.176Z,92.10
2022-10-31T18:17:56.299Z,92.10
2022-10-31T18:20:23.532Z,92.10
2022-10-31T18:22:50.629Z,92.10
2022-10-31T18:25:17.775Z,92.10
2022-10-31T18:27:45.210Z,92.10
2022-10-31T18:30:12.756Z,92.10
2022-10-31T18:32:39.949Z,92.10
2022-10-31T18:35:07.486Z,92.10
2022-10-31T18:37:37.607Z,92.10
2022-10-31T18:40:05.060Z,92.10
2022-10-31T18:42:32.264Z,92.10
2022-10-31T18:45:06.662Z,92.10
2022-10-31T18:47:44.313Z,92.10
2022-10-31T18:50:11.469Z,92.10
2022-10-31T18:52:38.692Z,92.10
2022-10-31T18:55:06.370Z,92.10
2022-10-31T18:57:33.583Z,92.10
2022-10-31T19:00:00.658Z,92.10
2022-10-31T19:02:27.997Z,92.10
2022-10-31T19:04:55.207Z,92.10
2022-10-31T19:07:22.458Z,92.10
2022-10-31T19:09:49.858Z,92.10
2022-10-31T19:12:17.192Z,92.10
2022-10-31T19:14:44.437Z,92.10
2022-10-31T19:17:11.961Z,92.10
2022-10-31T19:19:39.493Z,92.00
2022-10-31T19:22:06.741Z,92.00
2022-10-31T19:24:34.658Z,92.00
2022-10-31T19:27:01.842Z,92.00
2022-10-31T19:29:29.052Z,92.30
2022-10-31T19:31:56.133Z,92.00
2022-10-31T19:34:23.355Z,92.00
2022-10-31T19:36:50.464Z,92.00
2022-10-31T19:39:17.592Z,92.00
2022-10-31T19:41:45.013Z,92.00
2022-10-31T19:44:15.103Z,91.90
2022-10-31T19:46:53.209Z,91.90
2022-10-31T19:49:21.132Z,91.90
2022-10-31T19:51:48.523Z,91.90
2022-10-31T19:54:15.735Z,92.00
2022-10-31T19:56:43.280Z,91.90
2022-10-31T19:59:10.472Z,91.90
2022-10-31T20:01:38.507Z,91.80
2022-10-31T20:04:05.826Z,91.80
2022-10-31T20:06:39.211Z,91.90
2022-10-31T20:09:09.801Z,91.80
2022-10-31T20:11:39.393Z,91.90
2022-10-31T20:14:08.352Z,91.80
2022-10-31T20:16:35.508Z,91.80
2022-10-31T20:19:02.904Z,91.80
2022-10-31T20:21:32.251Z,91.80
2022-10-31T20:24:05.163Z,91.90
2022-10-31T20:26:33.636Z,91.80
2022-10-31T20:29:01.796Z,91.80
2022-10-31T20:31:33.156Z,91.90
2022-10-31T20:34:00.469Z,91.90
2022-10-31T20:36:29.675Z,91.90
2022-10-31T20:38:57.425Z,91.90
2022-10-31T20:41:25.461Z,91.90
2022-10-31T20:43:52.929Z,91.90
2022-10-31T20:46:26.169Z,92.00
2022-10-31T20:48:59.863Z,92.00
2022-10-31T20:51:29.247Z,91.90
2022-10-31T20:53:57.924Z,91.90
2022-10-31T20:56:27.283Z,92.00
2022-10-31T20:58:58.355Z,91.90
2022-10-31T21:01:31.174Z,91.90
2022-10-31T21:03:59.030Z,91.90
2022-10-31T21:06:26.689Z,92.00
2022-10-31T21:08:54.504Z,91.90
2022-10-31T21:11:24.017Z,92.00
2022-10-31T21:13:52.153Z,92.00
2022-10-31T21:16:25.030Z,92.00
2022-10-31T21:18:53.127Z,92.00
2022-10-31T21:21:29.237Z,92.00
2022-10-31T21:24:05.004Z,92.00
2022-10-31T21:26:36.066Z,92.00
2022-10-31T21:29:05.230Z,92.00
2022-10-31T21:31:33.253Z,92.10
2022-10-31T21:34:00.485Z,92.00
2022-10-31T21:36:28.098Z,92.10
2022-10-31T21:38:56.368Z,92.10
2022-10-31T21:41:24.929Z,92.10
2022-10-31T21:43:54.449Z,92.00
2022-10-31T21:46:24.827Z,92.00
2022-10-31T21:48:52.829Z,92.10
2022-10-31T21:51:24.736Z,92.10
2022-10-31T21:54:16.249Z,92.10
2022-10-31T21:56:43.881Z,92.10
2022-10-31T21:59:12.010Z,92.00
2022-10-31T22:01:40.185Z,92.10
2022-10-31T22:04:07.906Z,92.10
2022-10-31T22:06:36.572Z,92.00
2022-10-31T22:09:06.738Z,92.00
2022-10-31T22:11:34.591Z,92.00
2022-10-31T22:14:02.970Z,92.10
2022-10-31T22:16:31.300Z,92.10
2022-10-31T22:19:00.547Z,92.10
2022-10-31T22:21:28.446Z,92.10
2022-10-31T22:24:00.557Z,92.10
2022-10-31T22:26:31.126Z,92.10
2022-10-31T22:29:02.174Z,92.10
2022-10-31T22:31:31.364Z,92.10
2022-10-31T22:33:59.466Z,92.10
2022-10-31T22:36:28.985Z,92.10
2022-10-31T22:38:57.074Z,92.20
2022-10-31T22:41:33.627Z,92.20
2022-10-31T22:44:01.896Z,92.20
2022-10-31T22:46:37.899Z,92.20
2022-10-31T22:49:15.402Z,92.20
2022-10-31T22:51:43.958Z,92.20
2022-10-31T22:54:17.083Z,92.20
2022-10-31T22:56:44.587Z,92.20
2022-10-31T22:59:13.911Z,92.20
2022-10-31T23:01:42.047Z,92.20
2022-10-31T23:06:42.432Z,92.20
2022-10-31T23:09:12.506Z,92.20
2022-10-31T23:11:40.196Z,92.20
2022-10-31T23:14:15.900Z,92.30
2022-10-31T23:16:46.440Z,92.20
2022-10-31T23:19:17.922Z,92.30
2022-10-31T23:21:57.905Z,92.20
2022-10-31T23:24:39.807Z,92.20
2022-10-31T23:27:17.917Z,92.20
2022-10-31T23:29:51.501Z,92.20
2022-10-31T23:32:23.418Z,92.30
2022-10-31T23:34:52.114Z,92.20
2022-10-31T23:37:21.430Z,92.20
2022-10-31T23:39:49.193Z,92.30
2022-10-31T23:42:17.828Z,92.30
2022-10-31T23:44:45.827Z,92.30
2022-10-31T23:47:14.188Z,92.30
2022-10-31T23:49:41.448Z,92.30
2022-10-31T23:52:08.925Z,92.30
2022-10-31T23:54:36.891Z,92.30
2022-10-31T23:57:04.799Z,92.30
2022-10-31T23:59:32.236Z,92.30
